createdAt,value
2023-01-11T00:00:18.525Z,100711.53
2023-01-11T00:02:45.914Z,100694.53
2023-01-11T00:05:12.445Z,100690.31
2023-01-11T00:07:40.788Z,100692.94
2023-01-11T00:10:08.605Z,100681.81
2023-01-11T00:12:34.946Z,100678.56
2023-01-11T00:15:01.428Z,100683.03
2023-01-11T00:17:29.008Z,100681.38
2023-01-11T00:19:55.488Z,100666.09
2023-01-11T00:22:22.202Z,100665.28
2023-01-11T00:24:48.571Z,100658.41
2023-01-11T00:27:14.914Z,100650.06
2023-01-11T00:29:41.286Z,100642.47
2023-01-11T00:32:08.204Z,100643.38
2023-01-11T00:34:34.601Z,100647.59
2023-01-11T00:37:00.982Z,100627.00
2023-01-11T00:39:27.485Z,100627.78
2023-01-11T00:42:12.318Z,100626.84
2023-01-11T00:44:57.170Z,100618.16
2023-01-11T00:47:41.989Z,100607.16
2023-01-11T00:50:08.882Z,100607.25
2023-01-11T00:52:35.219Z,100603.22
2023-01-11T00:55:01.593Z,100598.88
2023-01-11T00:57:27.943Z,100601.47
2023-01-11T00:59:54.313Z,100603.25
2023-01-11T01:02:22.415Z,100589.59
2023-01-11T01:04:48.790Z,100597.28
2023-01-11T01:07:15.297Z,100587.97
2023-01-11T01:09:41.629Z,100576.88
2023-01-11T01:12:09.330Z,100573.47
2023-01-11T01:14:36.650Z,100582.88
2023-01-11T01:17:07.240Z,100587.16
2023-01-11T01:19:36.009Z,100585.50
2023-01-11T01:22:03.218Z,100580.47
2023-01-11T01:24:30.823Z,100566.81
2023-01-11T01:26:58.372Z,100566.91
2023-01-11T01:29:25.481Z,100558.59
2023-01-11T01:31:52.066Z,100557.84
2023-01-11T01:34:18.390Z,100560.47
2023-01-11T01:36:44.755Z,100559.59
2023-01-11T01:39:12.807Z,100558.00
2023-01-11T01:41:39.628Z,100558.94
2023-01-11T01:44:44.424Z,100552.19
2023-01-11T01:47:11.799Z,100546.28
2023-01-11T01:49:38.611Z,100539.66
2023-01-11T01:52:05.243Z,100548.25
2023-01-11T01:54:37.791Z,100530.38
2023-01-11T01:57:13.737Z,100525.38
2023-01-11T01:59:41.483Z,100523.91
2023-01-11T02:02:08.267Z,100520.47
2023-01-11T02:04:41.029Z,100512.72
2023-01-11T02:07:12.156Z,100512.72
2023-01-11T02:09:54.294Z,100513.78
2023-01-11T02:12:21.328Z,100515.47
2023-01-11T02:14:49.170Z,100509.41
2023-01-11T02:17:15.558Z,100504.22
2023-01-11T02:19:57.320Z,100497.34
2023-01-11T02:23:00.693Z,100487.19
2023-01-11T02:25:41.593Z,100495.72
2023-01-11T02:28:32.515Z,100490.47
2023-01-11T02:31:34.597Z,100482.94
2023-01-11T02:34:37.850Z,100479.59
2023-01-11T02:37:22.729Z,100477.09
2023-01-11T02:40:06.939Z,100473.63
2023-01-11T02:42:56.517Z,100457.44
2023-01-11T02:45:41.593Z,100477.25
2023-01-11T02:48:40.361Z,100483.22
2023-01-11T02:51:12.866Z,100477.25
2023-01-11T02:53:50.141Z,100479.09
2023-01-11T02:56:27.148Z,100453.47
2023-01-11T02:58:56.882Z,100477.38
2023-01-11T03:01:23.666Z,100467.16
2023-01-11T03:03:50.330Z,100462.00
2023-01-11T03:06:25.867Z,100468.03
2023-01-11T03:09:01.332Z,100470.84
2023-01-11T03:12:04.423Z,100474.31
2023-01-11T03:15:07.058Z,100471.03
2023-01-11T03:17:55.657Z,100460.75
2023-01-11T03:20:30.727Z,100461.63
2023-01-11T03:22:57.123Z,100465.13
2023-01-11T03:25:31.788Z,100461.78
2023-01-11T03:28:08.324Z,100456.66
2023-01-11T03:30:49.646Z,100468.72
2023-01-11T03:33:30.017Z,100456.72
2023-01-11T03:36:07.593Z,100459.25
2023-01-11T03:38:45.480Z,100453.38
2023-01-11T03:41:19.108Z,100462.78
2023-01-11T03:43:50.051Z,100446.38
2023-01-11T03:46:27.341Z,100444.66
2023-01-11T03:48:59.202Z,100445.66
2023-01-11T03:51:29.300Z,100443.13
2023-01-11T03:54:01.733Z,100435.41
2023-01-11T03:56:45.795Z,100446.56
2023-01-11T03:59:12.409Z,100444.06
2023-01-11T04:01:39.301Z,100446.63
2023-01-11T04:04:05.787Z,100438.00
2023-01-11T04:06:36.106Z,100443.13
2023-01-11T04:09:02.623Z,100437.13
2023-01-11T04:11:28.980Z,100430.28
2023-01-11T04:13:55.355Z,100435.41
2023-01-11T04:16:21.987Z,100422.56
2023-01-11T04:18:48.340Z,100419.19
2023-01-11T04:21:14.691Z,100427.78
2023-01-11T04:23:41.113Z,100409.03
2023-01-11T04:26:07.489Z,100417.63
2023-01-11T04:28:34.255Z,100433.97
2023-01-11T04:31:00.582Z,100405.66
2023-01-11T04:33:27.067Z,100412.63
2023-01-11T04:35:53.435Z,100413.63
2023-01-11T04:38:19.862Z,100404.16
2023-01-11T04:40:47.684Z,100418.06
2023-01-11T04:43:14.050Z,100407.69
2023-01-11T04:45:40.446Z,100410.31
2023-01-11T04:48:07.163Z,100409.44
2023-01-11T04:50:33.591Z,100416.41
2023-01-11T04:53:00.007Z,100397.66
2023-01-11T04:55:26.341Z,100402.78
2023-01-11T04:57:52.809Z,100415.69
2023-01-11T05:00:19.391Z,100408.06
2023-01-11T05:02:45.767Z,100409.00
2023-01-11T05:05:12.108Z,100407.28
2023-01-11T05:07:39.458Z,100403.88
2023-01-11T05:10:06.409Z,100408.38
2023-01-11T05:12:32.768Z,100403.31
2023-01-11T05:14:59.126Z,100407.63
2023-01-11T05:17:25.594Z,100405.09
2023-01-11T05:19:51.922Z,100405.22
2023-01-11T05:22:18.315Z,100402.66
2023-01-11T05:24:44.630Z,100412.09
2023-01-11T05:27:10.943Z,100403.50
2023-01-11T05:29:37.321Z,100403.69
2023-01-11T05:32:03.774Z,100407.91
2023-01-11T05:34:30.281Z,100407.09
2023-01-11T05:36:56.617Z,100406.28
2023-01-11T05:39:23.864Z,100408.16
2023-01-11T05:41:50.265Z,100405.69
2023-01-11T05:44:35.656Z,100409.16
2023-01-11T05:47:02.070Z,100405.75
2023-01-11T05:49:28.528Z,100414.38
2023-01-11T05:51:54.885Z,100409.28
2023-01-11T05:54:21.301Z,100415.22
2023-01-11T05:56:47.678Z,100421.22
2023-01-11T05:59:14.035Z,100423.03
2023-01-11T06:01:40.460Z,100425.69
2023-01-11T06:04:08.578Z,100421.38
2023-01-11T06:06:35.356Z,100418.00
2023-01-11T06:09:01.802Z,100416.38
2023-01-11T06:11:28.220Z,100426.75
2023-01-11T06:13:54.899Z,100421.63
2023-01-11T06:16:22.281Z,100426.88
2023-01-11T06:18:51.084Z,100424.31
2023-01-11T06:21:18.372Z,100417.44
2023-01-11T06:23:46.699Z,100420.09
2023-01-11T06:26:18.321Z,100419.28
2023-01-11T06:28:45.038Z,100409.84
2023-01-11T06:31:12.197Z,100418.50
2023-01-11T06:33:38.960Z,100426.25
2023-01-11T06:36:08.086Z,100423.72
2023-01-11T06:38:34.583Z,100428.94
2023-01-11T06:41:02.350Z,100426.38
2023-01-11T06:43:30.004Z,100422.31
2023-01-11T06:45:57.078Z,100418.81
2023-01-11T06:48:24.186Z,100418.81
2023-01-11T06:50:52.429Z,100442.91
2023-01-11T06:53:19.082Z,100432.69
2023-01-11T06:55:49.481Z,100434.38
2023-01-11T06:58:15.845Z,100447.41
2023-01-11T07:00:42.189Z,100433.59
2023-01-11T07:03:11.095Z,100431.00
2023-01-11T07:05:37.444Z,100435.38
2023-01-11T07:08:03.899Z,100440.50
2023-01-11T07:10:30.356Z,100448.31
2023-01-11T07:12:56.809Z,100452.66
2023-01-11T07:15:23.189Z,100460.34
2023-01-11T07:17:54.776Z,100462.16
2023-01-11T07:20:21.963Z,100461.38
2023-01-11T07:22:48.899Z,100455.31
2023-01-11T07:25:15.397Z,100460.47
2023-01-11T07:27:41.768Z,100459.69
2023-01-11T07:30:09.931Z,100464.00
2023-01-11T07:32:36.488Z,100466.56
2023-01-11T07:35:02.968Z,100467.47
2023-01-11T07:37:32.635Z,100468.34
2023-01-11T07:39:58.993Z,100476.16
2023-01-11T07:42:43.653Z,100483.94
2023-01-11T07:45:10.477Z,100489.13
2023-01-11T07:47:36.860Z,100485.59
2023-01-11T07:50:03.529Z,100495.88
2023-01-11T07:52:29.921Z,100503.56
2023-01-11T07:55:02.122Z,100504.38
2023-01-11T07:57:30.047Z,100507.09
2023-01-11T07:59:56.479Z,100516.59
2023-01-11T08:02:22.923Z,100544.09
2023-01-11T08:04:49.317Z,100547.50
2023-01-11T08:07:15.830Z,100532.09
2023-01-11T08:09:42.165Z,100532.09
2023-01-11T08:12:27.168Z,100520.00
2023-01-11T08:14:53.540Z,100529.41
2023-01-11T08:17:20.003Z,100527.63
2023-01-11T08:19:46.346Z,100538.91
2023-01-11T08:22:12.929Z,100527.72
2023-01-11T08:24:39.323Z,100524.22
2023-01-11T08:27:05.748Z,100528.44
2023-01-11T08:29:32.389Z,100530.19
2023-01-11T08:31:59.496Z,100538.00
2023-01-11T08:34:27.579Z,100542.38
2023-01-11T08:36:54.132Z,100534.63
2023-01-11T08:39:20.515Z,100534.69
2023-01-11T08:41:46.875Z,100536.44
2023-01-11T08:44:14.980Z,100542.41
2023-01-11T08:46:41.564Z,100539.06
2023-01-11T08:49:12.010Z,100552.88
2023-01-11T08:51:42.355Z,100548.63
2023-01-11T08:54:13.996Z,100546.88
2023-01-11T08:56:40.441Z,100544.34
2023-01-11T08:59:06.896Z,100542.69
2023-01-11T09:01:36.224Z,100553.91
2023-01-11T09:04:09.428Z,100566.72
2023-01-11T09:06:42.112Z,100583.84
2023-01-11T09:09:08.456Z,100582.19
2023-01-11T09:11:53.486Z,100577.84
2023-01-11T09:14:21.226Z,100576.06
2023-01-11T09:16:48.901Z,100582.03
2023-01-11T09:19:15.419Z,100576.06
2023-01-11T09:21:41.872Z,100576.94
2023-01-11T09:24:08.466Z,100577.84
2023-01-11T09:26:35.804Z,100576.06
2023-01-11T09:29:02.341Z,100573.56
2023-01-11T09:31:28.797Z,100572.75
2023-01-11T09:33:55.181Z,100569.38
2023-01-11T09:36:23.453Z,100572.00
2023-01-11T09:38:52.658Z,100569.41
2023-01-11T09:41:43.213Z,100583.19
2023-01-11T09:44:16.674Z,100584.94
2023-01-11T09:46:48.379Z,100581.53
2023-01-11T09:49:28.089Z,100586.66
2023-01-11T09:52:09.610Z,100591.84
2023-01-11T09:54:36.644Z,100595.25
2023-01-11T09:57:37.558Z,100600.41
2023-01-11T10:00:28.445Z,100597.00
2023-01-11T10:03:27.839Z,100596.13
2023-01-11T10:06:10.067Z,100604.78
2023-01-11T10:18:28.983Z,100599.59
2023-01-11T10:18:53.786Z,100610.72
2023-01-11T10:21:25.093Z,100619.38
2023-01-11T10:23:58.428Z,100620.22
2023-01-11T10:26:32.490Z,100627.09
2023-01-11T10:29:17.367Z,100632.28
2023-01-11T10:32:07.113Z,100633.13
2023-01-11T10:35:17.843Z,100627.09
2023-01-11T10:38:02.362Z,100630.59
2023-01-11T10:41:00.419Z,100623.69
2023-01-11T10:43:31.481Z,100627.16
2023-01-11T10:48:43.724Z,100609.09
2023-01-11T10:51:25.842Z,100608.22
2023-01-11T10:54:14.011Z,100598.72
2023-01-11T10:57:08.989Z,100609.97
2023-01-11T10:59:57.337Z,100614.31
2023-01-11T11:02:32.876Z,100621.16
2023-01-11T11:05:20.621Z,100619.41
2023-01-11T11:07:56.036Z,100607.41
2023-01-11T11:10:33.997Z,100601.38
2023-01-11T11:13:16.538Z,100601.44
2023-01-11T11:15:56.413Z,100606.75
2023-01-11T11:18:23.627Z,100607.56
2023-01-11T11:20:50.442Z,100608.41
2023-01-11T11:23:21.800Z,100606.59
2023-01-11T11:26:02.475Z,100616.97
2023-01-11T11:28:31.693Z,100617.84
2023-01-11T11:31:01.771Z,100628.13
2023-01-11T11:33:38.625Z,100628.19
2023-01-11T11:36:09.435Z,100627.31
2023-01-11T11:38:36.904Z,100632.50
2023-01-11T11:41:07.932Z,100626.44
2023-01-11T11:43:39.559Z,100623.91
2023-01-11T11:46:19.501Z,100628.34
2023-01-11T11:49:18.450Z,100622.34
2023-01-11T11:51:47.069Z,100627.50
2023-01-11T11:54:26.672Z,100629.19
2023-01-11T11:56:54.708Z,100624.09
2023-01-11T11:59:23.347Z,100624.91
2023-01-11T12:01:57.862Z,100618.81
2023-01-11T12:04:44.410Z,100619.56
2023-01-11T12:07:23.901Z,100623.00
2023-01-11T12:09:57.154Z,100620.56
2023-01-11T12:12:26.371Z,100628.28
2023-01-11T12:15:17.142Z,100629.16
2023-01-11T12:17:43.625Z,100627.44
2023-01-11T12:20:22.130Z,100631.72
2023-01-11T12:23:10.267Z,100637.75
2023-01-11T12:25:50.247Z,100629.06
2023-01-11T12:28:50.667Z,100638.56
2023-01-11T12:31:44.747Z,100641.19
2023-01-11T12:34:43.780Z,100640.34
2023-01-11T12:37:31.008Z,100639.44
2023-01-11T12:40:09.605Z,100646.34
2023-01-11T12:42:55.114Z,100647.22
2023-01-11T12:45:34.646Z,100647.22
2023-01-11T12:48:19.523Z,100641.22
2023-01-11T12:51:05.496Z,100641.22
2023-01-11T12:53:49.815Z,100642.09
2023-01-11T12:56:58.884Z,100642.03
2023-01-11T13:00:00.233Z,100642.06
2023-01-11T13:02:45.550Z,100635.13
2023-01-11T13:05:23.977Z,100635.16
2023-01-11T13:08:16.274Z,100634.41
2023-01-11T13:10:55.979Z,100644.84
2023-01-11T13:13:36.319Z,100647.56
2023-01-11T13:16:05.614Z,100653.78
2023-01-11T13:18:47.240Z,100658.88
2023-01-11T13:21:20.670Z,100665.84
2023-01-11T13:23:53.246Z,100664.38
2023-01-11T13:26:31.317Z,100664.31
2023-01-11T13:29:03.030Z,100665.09
2023-01-11T13:31:32.083Z,100677.13
2023-01-11T13:34:05.348Z,100666.66
2023-01-11T13:36:41.014Z,100669.22
2023-01-11T13:39:17.701Z,100671.00
2023-01-11T13:41:55.537Z,100671.97
2023-01-11T13:44:30.738Z,100669.34
2023-01-11T13:47:00.217Z,100672.75
2023-01-11T13:49:51.519Z,100675.34
2023-01-11T13:52:23.419Z,100684.91
2023-01-11T13:55:11.194Z,100684.81
2023-01-11T13:57:47.711Z,100696.94
2023-01-11T14:00:40.435Z,100702.16
2023-01-11T14:03:33.895Z,100703.03
2023-01-11T14:06:03.191Z,100710.78
2023-01-11T14:09:19.893Z,100718.47
2023-01-11T14:11:58.518Z,100717.53
2023-01-11T14:14:49.651Z,100714.00
2023-01-11T14:17:38.257Z,100718.13
2023-01-11T14:20:21.698Z,100724.97
2023-01-11T14:23:16.192Z,100723.88
2023-01-11T14:26:09.783Z,100737.50
2023-01-11T14:28:50.096Z,100729.69
2023-01-11T14:31:58.297Z,100729.69
2023-01-11T14:34:58.719Z,100740.81
2023-01-11T14:37:52.774Z,100747.50
2023-01-11T14:40:30.675Z,100747.31
2023-01-11T14:43:21.900Z,100765.22
2023-01-11T14:46:12.727Z,100759.03
2023-01-11T14:49:23.384Z,100762.41
2023-01-11T14:52:14.617Z,100764.84
2023-01-11T14:54:45.309Z,100773.28
2023-01-11T14:57:30.563Z,100775.88
2023-01-11T14:59:56.962Z,100769.78
2023-01-11T15:02:26.313Z,100772.31
2023-01-11T15:04:53.140Z,100764.50
2023-01-11T15:07:31.329Z,100768.72
2023-01-11T15:10:05.902Z,100761.06
2023-01-11T15:12:34.197Z,100778.19
2023-01-11T15:15:18.576Z,100775.50
2023-01-11T15:18:05.237Z,100790.88
2023-01-11T15:20:33.554Z,100783.09
2023-01-11T15:23:02.440Z,100786.50
2023-01-11T15:25:33.750Z,100783.03
2023-01-11T15:28:32.196Z,100781.13
2023-01-11T15:30:58.777Z,100774.13
2023-01-11T15:33:25.408Z,100776.66
2023-01-11T15:35:57.723Z,100772.38
2023-01-11T15:38:36.885Z,100773.19
2023-01-11T15:41:26.027Z,100770.59
2023-01-11T15:44:17.811Z,100775.72
2023-01-11T15:47:18.211Z,100774.72
2023-01-11T15:49:57.043Z,100786.78
2023-01-11T15:53:11.919Z,100773.66
2023-01-11T15:55:51.520Z,100776.19
2023-01-11T15:58:57.121Z,100766.59
2023-01-11T16:01:30.569Z,100776.91
2023-01-11T16:04:25.410Z,100763.84
2023-01-11T16:06:57.115Z,100766.44
2023-01-11T16:09:49.619Z,100768.00
2023-01-11T16:12:38.396Z,100768.00
2023-01-11T16:15:16.215Z,100772.25
2023-01-11T16:17:44.519Z,100773.00
2023-01-11T16:20:20.339Z,100778.03
2023-01-11T16:22:51.749Z,100786.50
2023-01-11T16:25:20.403Z,100786.53
2023-01-11T16:27:53.973Z,100790.78
2023-01-11T16:30:21.025Z,100783.88
2023-01-11T16:32:47.426Z,100784.75
2023-01-11T16:35:23.564Z,100789.72
2023-01-11T16:37:54.731Z,100792.97
2023-01-11T16:40:32.189Z,100787.06
2023-01-11T16:43:05.390Z,100785.31
2023-01-11T16:45:42.320Z,100780.06
2023-01-11T16:48:17.522Z,100779.94
2023-01-11T16:50:57.777Z,100789.38
2023-01-11T16:53:26.199Z,100783.31
2023-01-11T16:56:02.866Z,100787.47
2023-01-11T16:58:31.417Z,100792.66
2023-01-11T17:01:01.617Z,100778.91
2023-01-11T17:03:30.560Z,100779.69
2023-01-11T17:06:18.679Z,100787.34
2023-01-11T17:08:54.299Z,100792.53
2023-01-11T17:11:35.177Z,100801.97
2023-01-11T17:14:13.744Z,100794.19
2023-01-11T17:16:42.866Z,100801.75
2023-01-11T17:19:16.781Z,100800.81
2023-01-11T17:22:03.268Z,100803.47
2023-01-11T17:24:30.746Z,100818.13
2023-01-11T17:27:00.181Z,100819.84
2023-01-11T17:29:33.758Z,100822.25
2023-01-11T17:32:02.901Z,100823.09
2023-01-11T17:34:35.007Z,100814.44
2023-01-11T17:37:10.676Z,100821.25
2023-01-11T17:39:49.160Z,100823.72
2023-01-11T17:42:35.208Z,100819.44
2023-01-11T17:45:14.336Z,100828.13
2023-01-11T17:47:45.454Z,100819.56
2023-01-11T17:50:18.947Z,100824.63
2023-01-11T17:52:54.538Z,100818.66
2023-01-11T17:55:25.366Z,100823.69
2023-01-11T17:58:19.814Z,100821.06
2023-01-11T18:01:04.732Z,100822.59
2023-01-11T18:03:39.444Z,100826.00
2023-01-11T18:06:19.413Z,100823.53
2023-01-11T18:08:48.524Z,100825.22
2023-01-11T18:11:24.224Z,100824.22
2023-01-11T18:13:52.405Z,100827.69
2023-01-11T18:16:19.956Z,100825.16
2023-01-11T18:18:49.212Z,100827.75
2023-01-11T18:21:31.542Z,100832.78
2023-01-11T18:24:10.356Z,100827.69
2023-01-11T18:26:38.628Z,100834.59
2023-01-11T18:29:05.354Z,100836.41
2023-01-11T18:31:32.480Z,100833.97
2023-01-11T18:34:05.660Z,100834.06
2023-01-11T18:36:32.039Z,100829.69
2023-01-11T18:38:58.381Z,100832.25
2023-01-11T18:41:44.734Z,100832.38
2023-01-11T18:44:11.950Z,100840.16
2023-01-11T18:46:38.336Z,100826.44
2023-01-11T18:49:04.734Z,100828.00
2023-01-11T18:51:39.445Z,100821.97
2023-01-11T18:54:06.544Z,100829.72
2023-01-11T18:56:32.888Z,100835.69
2023-01-11T18:58:59.376Z,100824.59
2023-01-11T19:01:25.763Z,100827.97
2023-01-11T19:03:52.393Z,100822.78
2023-01-11T19:06:21.001Z,100826.38
2023-01-11T19:08:47.717Z,100822.00
2023-01-11T19:11:15.372Z,100809.97
2023-01-11T19:13:41.724Z,100820.25
2023-01-11T19:16:08.719Z,100810.88
2023-01-11T19:18:36.218Z,100818.63
2023-01-11T19:21:06.355Z,100809.88
2023-01-11T19:23:34.211Z,100817.59
2023-01-11T19:26:02.107Z,100808.91
2023-01-11T19:28:28.791Z,100808.06
2023-01-11T19:30:55.376Z,100802.78
2023-01-11T19:33:22.134Z,100801.94
2023-01-11T19:35:49.381Z,100796.84
2023-01-11T19:38:19.493Z,100799.25
2023-01-11T19:40:47.961Z,100798.34
2023-01-11T19:43:15.876Z,100790.56
2023-01-11T19:45:42.218Z,100796.41
2023-01-11T19:48:08.592Z,100788.66
2023-01-11T19:50:34.940Z,100786.94
2023-01-11T19:53:01.299Z,100786.03
2023-01-11T19:55:27.763Z,100783.31
2023-01-11T19:57:54.091Z,100782.28
2023-01-11T20:00:20.661Z,100798.53
2023-01-11T20:02:47.015Z,100793.47
2023-01-11T20:05:13.774Z,100795.00
2023-01-11T20:07:40.104Z,100784.72
2023-01-11T20:10:06.689Z,100789.22
2023-01-11T20:12:33.017Z,100779.91
2023-01-11T20:15:01.317Z,100778.91
2023-01-11T20:17:28.606Z,100778.84
2023-01-11T20:19:55.306Z,100772.78
2023-01-11T20:22:25.064Z,100774.28
2023-01-11T20:24:51.602Z,100770.06
2023-01-11T20:27:18.264Z,100763.97
2023-01-11T20:29:45.677Z,100754.41
2023-01-11T20:32:34.823Z,100750.06
2023-01-11T20:34:58.387Z,100748.41
2023-01-11T20:37:24.773Z,100752.69
2023-01-11T20:39:51.261Z,100743.03
2023-01-11T20:42:17.608Z,100748.25
2023-01-11T20:44:44.137Z,100738.78
2023-01-11T20:47:10.518Z,100733.53
2023-01-11T20:49:36.985Z,100728.56
2023-01-11T20:52:03.729Z,100729.19
2023-01-11T20:54:30.218Z,100725.72
2023-01-11T20:57:01.905Z,100729.91
2023-01-11T20:59:28.269Z,100723.06
2023-01-11T21:01:54.645Z,100728.25
2023-01-11T21:04:21.043Z,100711.84
2023-01-11T21:06:48.301Z,100709.28
2023-01-11T21:09:16.983Z,100706.69
2023-01-11T21:11:44.261Z,100700.69
2023-01-11T21:14:13.585Z,100695.63
2023-01-11T21:16:42.490Z,100699.09
2023-01-11T21:19:11.953Z,100702.50
2023-01-11T21:21:38.319Z,100698.38
2023-01-11T21:24:05.945Z,100692.38
2023-01-11T21:26:33.081Z,100680.50
2023-01-11T21:29:01.486Z,100663.31
2023-01-11T21:31:30.054Z,100666.03
2023-01-11T21:33:57.079Z,100657.38
2023-01-11T21:36:25.013Z,100648.81
2023-01-11T21:38:51.583Z,100648.03
2023-01-11T21:41:45.095Z,100639.59
2023-01-11T21:44:13.016Z,100638.81
2023-01-11T21:46:40.138Z,100641.44
2023-01-11T21:49:07.474Z,100642.44
2023-01-11T21:51:34.442Z,100637.41
2023-01-11T21:54:04.360Z,100628.78
2023-01-11T21:56:30.782Z,100612.59
2023-01-11T21:58:57.143Z,100612.78
2023-01-11T22:01:23.641Z,100613.72
2023-01-11T22:03:50.251Z,100612.88
2023-01-11T22:06:17.281Z,100593.28
2023-01-11T22:08:44.995Z,100593.34
2023-01-11T22:11:13.027Z,100602.88
2023-01-11T22:13:39.671Z,100585.72
2023-01-11T22:16:08.723Z,100590.13
2023-01-11T22:18:35.792Z,100587.69
2023-01-11T22:21:09.922Z,100598.84
2023-01-11T22:23:36.721Z,100593.78
2023-01-11T22:26:17.805Z,100596.50
2023-01-11T22:29:04.159Z,100587.84
2023-01-11T22:31:31.939Z,100592.94
2023-01-11T22:33:59.422Z,100590.47
2023-01-11T22:36:27.016Z,100580.88
2023-01-11T22:38:53.975Z,100581.72
2023-01-11T22:41:20.905Z,100578.25
2023-01-11T22:43:47.852Z,100577.38
2023-01-11T22:46:16.828Z,100575.47
2023-01-11T22:48:43.797Z,100573.06
2023-01-11T22:51:11.307Z,100562.78
2023-01-11T22:53:43.653Z,100563.72
2023-01-11T22:56:11.689Z,100562.09
2023-01-11T22:58:38.096Z,100558.72
2023-01-11T23:01:15.909Z,100556.91
2023-01-11T23:03:43.088Z,100562.97
2023-01-11T23:06:10.479Z,100555.09
2023-01-11T23:08:41.594Z,100551.69
2023-01-11T23:11:09.233Z,100549.91
2023-01-11T23:13:55.138Z,100555.03
2023-01-11T23:16:22.572Z,100543.84
2023-01-11T23:18:49.004Z,100546.47
2023-01-11T23:21:16.526Z,100531.03
2023-01-11T23:23:43.404Z,100531.00
2023-01-11T23:26:11.732Z,100527.56
2023-01-11T23:28:39.314Z,100534.44
2023-01-11T23:31:15.353Z,100530.16
2023-01-11T23:33:42.135Z,100536.97
2023-01-11T23:36:08.841Z,100539.53
2023-01-11T23:38:35.273Z,100537.75
2023-01-11T23:41:27.959Z,100548.03
2023-01-11T23:43:54.408Z,100530.09
2023-01-11T23:46:40.182Z,100530.97
2023-01-11T23:49:08.523Z,100519.78
2023-01-11T23:51:35.958Z,100519.09
2023-01-11T23:54:04.167Z,100524.25
2023-01-11T23:56:31.738Z,100513.19
2023-01-11T23:58:58.380Z,100522.59
